sensor_id;sensor_type;location;lat;lon;timestamp;P1;durP1;ratioP1;P2;durP2;ratioP2
23517;SDS011;11935;50.878;4.392;2022-10-28T00:02:25;12.95;;;3.47;;
23517;SDS011;11935;50.878;4.392;2022-10-28T00:04:51;12.02;;;3.67;;
23517;SDS011;11935;50.878;4.392;2022-10-28T00:07:17;9.20;;;3.47;;
23517;SDS011;11935;50.878;4.392;2022-10-28T00:09:43;13.30;;;3.55;;
23517;SDS011;11935;50.878;4.392;2022-10-28T00:12:09;9.98;;;3.60;;
23517;SDS011;11935;50.878;4.392;2022-10-28T00:14:35;8.80;;;3.20;;
23517;SDS011;11935;50.878;4.392;2022-10-28T00:17:01;8.23;;;3.25;;
23517;SDS011;11935;50.878;4.392;2022-10-28T00:19:27;13.25;;;4.20;;
23517;SDS011;11935;50.878;4.392;2022-10-28T00:21:53;12.82;;;2.88;;
23517;SDS011;11935;50.878;4.392;2022-10-28T00:24:19;13.13;;;3.72;;
23517;SDS011;11935;50.878;4.392;2022-10-28T00:26:45;10.95;;;3.40;;
23517;SDS011;11935;50.878;4.392;2022-10-28T00:29:13;13.30;;;3.92;;
23517;SDS011;11935;50.878;4.392;2022-10-28T00:31:40;10.38;;;3.40;;
23517;SDS011;11935;50.878;4.392;2022-10-28T00:34:08;10.02;;;3.63;;
23517;SDS011;11935;50.878;4.392;2022-10-28T00:36:36;15.02;;;3.30;;
23517;SDS011;11935;50.878;4.392;2022-10-28T00:39:06;10.32;;;3.20;;
23517;SDS011;11935;50.878;4.392;2022-10-28T00:41:33;7.50;;;3.33;;
23517;SDS011;11935;50.878;4.392;2022-10-28T00:44:01;8.13;;;3.25;;
23517;SDS011;11935;50.878;4.392;2022-10-28T00:46:34;10.98;;;3.40;;
23517;SDS011;11935;50.878;4.392;2022-10-28T00:51:29;16.38;;;3.72;;
23517;SDS011;11935;50.878;4.392;2022-10-28T00:53:56;11.88;;;3.00;;
23517;SDS011;11935;50.878;4.392;2022-10-28T00:56:23;12.20;;;3.53;;
23517;SDS011;11935;50.878;4.392;2022-10-28T00:58:51;11.48;;;3.35;;
23517;SDS011;11935;50.878;4.392;2022-10-28T01:01:19;9.40;;;3.22;;
23517;SDS011;11935;50.878;4.392;2022-10-28T01:03:46;10.77;;;3.28;;
23517;SDS011;11935;50.878;4.392;2022-10-28T01:06:12;12.25;;;3.25;;
23517;SDS011;11935;50.878;4.392;2022-10-28T01:08:38;11.07;;;2.80;;
23517;SDS011;11935;50.878;4.392;2022-10-28T01:24:18;8.55;;;3.60;;
23517;SDS011;11935;50.878;4.392;2022-10-28T01:31:44;13.68;;;3.22;;
23517;SDS011;11935;50.878;4.392;2022-10-28T01:40:24;10.38;;;3.60;;
23517;SDS011;11935;50.878;4.392;2022-10-28T01:42:54;11.07;;;2.88;;
23517;SDS011;11935;50.878;4.392;2022-10-28T01:45:29;12.77;;;2.92;;
23517;SDS011;11935;50.878;4.392;2022-10-28T01:48:07;11.32;;;4.55;;
23517;SDS011;11935;50.878;4.392;2022-10-28T01:50:36;12.35;;;3.40;;
23517;SDS011;11935;50.878;4.392;2022-10-28T01:53:05;7.45;;;2.70;;
23517;SDS011;11935;50.878;4.392;2022-10-28T01:55:37;11.68;;;3.05;;
23517;SDS011;11935;50.878;4.392;2022-10-28T01:58:05;10.20;;;3.00;;
23517;SDS011;11935;50.878;4.392;2022-10-28T02:00:32;7.78;;;3.13;;
23517;SDS011;11935;50.878;4.392;2022-10-28T02:02:58;9.15;;;2.80;;
23517;SDS011;11935;50.878;4.392;2022-10-28T02:08:13;8.75;;;3.45;;
23517;SDS011;11935;50.878;4.392;2022-10-28T02:16:30;8.52;;;3.60;;
23517;SDS011;11935;50.878;4.392;2022-10-28T02:19:02;12.95;;;3.78;;
23517;SDS011;11935;50.878;4.392;2022-10-28T02:21:34;9.93;;;3.58;;
23517;SDS011;11935;50.878;4.392;2022-10-28T02:24:15;10.95;;;2.97;;
23517;SDS011;11935;50.878;4.392;2022-10-28T02:26:49;11.52;;;3.42;;
23517;SDS011;11935;50.878;4.392;2022-10-28T02:34:10;11.18;;;3.15;;
23517;SDS011;11935;50.878;4.392;2022-10-28T02:39:04;8.98;;;2.85;;
23517;SDS011;11935;50.878;4.392;2022-10-28T02:44:13;12.70;;;3.50;;
23517;SDS011;11935;50.878;4.392;2022-10-28T02:46:44;6.95;;;2.85;;
23517;SDS011;11935;50.878;4.392;2022-10-28T02:49:12;11.32;;;2.97;;
23517;SDS011;11935;50.878;4.392;2022-10-28T02:51:40;10.98;;;3.05;;
23517;SDS011;11935;50.878;4.392;2022-10-28T02:54:14;11.27;;;3.00;;
23517;SDS011;11935;50.878;4.392;2022-10-28T02:57:23;9.65;;;3.55;;
23517;SDS011;11935;50.878;4.392;2022-10-28T02:59:37;11.63;;;3.58;;
23517;SDS011;11935;50.878;4.392;2022-10-28T03:02:04;7.80;;;3.17;;
23517;SDS011;11935;50.878;4.392;2022-10-28T03:04:30;11.10;;;2.92;;
23517;SDS011;11935;50.878;4.392;2022-10-28T03:06:56;13.32;;;3.35;;
23517;SDS011;11935;50.878;4.392;2022-10-28T03:09:22;10.20;;;3.88;;
23517;SDS011;11935;50.878;4.392;2022-10-28T03:11:48;9.35;;;3.60;;
23517;SDS011;11935;50.878;4.392;2022-10-28T03:14:14;10.43;;;3.10;;
23517;SDS011;11935;50.878;4.392;2022-10-28T03:16:40;10.63;;;3.63;;
23517;SDS011;11935;50.878;4.392;2022-10-28T03:19:06;10.40;;;3.13;;
23517;SDS011;11935;50.878;4.392;2022-10-28T03:21:32;14.02;;;3.55;;
23517;SDS011;11935;50.878;4.392;2022-10-28T03:23:58;11.50;;;3.40;;
23517;SDS011;11935;50.878;4.392;2022-10-28T03:26:24;9.35;;;3.20;;
23517;SDS011;11935;50.878;4.392;2022-10-28T03:28:50;12.27;;;4.03;;
23517;SDS011;11935;50.878;4.392;2022-10-28T03:31:16;10.10;;;3.00;;
23517;SDS011;11935;50.878;4.392;2022-10-28T03:33:42;8.77;;;3.33;;
23517;SDS011;11935;50.878;4.392;2022-10-28T03:36:08;14.55;;;3.70;;
23517;SDS011;11935;50.878;4.392;2022-10-28T03:38:34;12.65;;;4.45;;
23517;SDS011;11935;50.878;4.392;2022-10-28T03:41:00;9.77;;;3.15;;
23517;SDS011;11935;50.878;4.392;2022-10-28T03:43:26;20.73;;;4.20;;
23517;SDS011;11935;50.878;4.392;2022-10-28T03:45:52;15.15;;;5.80;;
23517;SDS011;11935;50.878;4.392;2022-10-28T03:48:18;15.75;;;4.10;;
23517;SDS011;11935;50.878;4.392;2022-10-28T03:50:44;10.38;;;3.42;;
23517;SDS011;11935;50.878;4.392;2022-10-28T03:53:10;15.07;;;4.20;;
23517;SDS011;11935;50.878;4.392;2022-10-28T03:55:36;14.77;;;3.78;;
23517;SDS011;11935;50.878;4.392;2022-10-28T03:58:02;12.07;;;3.75;;
23517;SDS011;11935;50.878;4.392;2022-10-28T04:00:28;15.20;;;3.75;;
23517;SDS011;11935;50.878;4.392;2022-10-28T04:02:54;17.35;;;6.22;;
23517;SDS011;11935;50.878;4.392;2022-10-28T04:05:20;11.35;;;3.70;;
23517;SDS011;11935;50.878;4.392;2022-10-28T04:07:46;11.10;;;2.92;;
23517;SDS011;11935;50.878;4.392;2022-10-28T04:10:13;13.73;;;3.75;;
23517;SDS011;11935;50.878;4.392;2022-10-28T04:12:39;15.43;;;3.60;;
23517;SDS011;11935;50.878;4.392;2022-10-28T04:15:05;12.70;;;3.67;;
23517;SDS011;11935;50.878;4.392;2022-10-28T04:17:34;9.25;;;3.58;;
23517;SDS011;11935;50.878;4.392;2022-10-28T04:20:00;10.57;;;3.30;;
23517;SDS011;11935;50.878;4.392;2022-10-28T04:22:26;9.35;;;3.70;;
23517;SDS011;11935;50.878;4.392;2022-10-28T04:24:52;14.48;;;3.15;;
23517;SDS011;11935;50.878;4.392;2022-10-28T04:27:18;8.82;;;3.40;;
23517;SDS011;11935;50.878;4.392;2022-10-28T04:29:44;13.00;;;3.65;;
23517;SDS011;11935;50.878;4.392;2022-10-28T04:32:11;14.80;;;3.45;;
23517;SDS011;11935;50.878;4.392;2022-10-28T04:34:37;16.00;;;3.10;;
23517;SDS011;11935;50.878;4.392;2022-10-28T04:37:03;11.57;;;3.80;;
23517;SDS011;11935;50.878;4.392;2022-10-28T04:39:29;8.68;;;3.33;;
23517;SDS011;11935;50.878;4.392;2022-10-28T04:41:55;11.93;;;3.40;;
23517;SDS011;11935;50.878;4.392;2022-10-28T04:44:21;10.25;;;3.80;;
23517;SDS011;11935;50.878;4.392;2022-10-28T04:46:47;9.82;;;3.40;;
23517;SDS011;11935;50.878;4.392;2022-10-28T04:49:13;9.15;;;3.83;;
23517;SDS011;11935;50.878;4.392;2022-10-28T04:51:39;8.65;;;3.15;;
23517;SDS011;11935;50.878;4.392;2022-10-28T04:54:05;16.00;;;3.78;;
23517;SDS011;11935;50.878;4.392;2022-10-28T04:56:31;10.95;;;3.85;;
23517;SDS011;11935;50.878;4.392;2022-10-28T04:58:57;12.05;;;3.47;;
23517;SDS011;11935;50.878;4.392;2022-10-28T05:01:23;16.35;;;3.88;;
23517;SDS011;11935;50.878;4.392;2022-10-28T05:03:49;11.05;;;2.92;;
23517;SDS011;11935;50.878;4.392;2022-10-28T05:06:15;12.88;;;3.53;;
23517;SDS011;11935;50.878;4.392;2022-10-28T05:08:41;11.95;;;3.63;;
23517;SDS011;11935;50.878;4.392;2022-10-28T05:11:07;8.30;;;3.28;;
23517;SDS011;11935;50.878;4.392;2022-10-28T05:13:33;11.88;;;3.45;;
23517;SDS011;11935;50.878;4.392;2022-10-28T05:15:59;9.68;;;3.63;;
23517;SDS011;11935;50.878;4.392;2022-10-28T05:18:25;11.98;;;3.10;;
23517;SDS011;11935;50.878;4.392;2022-10-28T05:20:51;16.00;;;3.13;;
23517;SDS011;11935;50.878;4.392;2022-10-28T05:23:21;15.13;;;3.22;;
23517;SDS011;11935;50.878;4.392;2022-10-28T05:25:48;12.60;;;3.78;;
23517;SDS011;11935;50.878;4.392;2022-10-28T05:28:15;17.90;;;3.90;;
23517;SDS011;11935;50.878;4.392;2022-10-28T05:30:41;16.55;;;3.55;;
23517;SDS011;11935;50.878;4.392;2022-10-28T05:33:07;12.43;;;3.22;;
23517;SDS011;11935;50.878;4.392;2022-10-28T05:35:35;10.47;;;3.43;;
23517;SDS011;11935;50.878;4.392;2022-10-28T05:38:01;9.75;;;3.75;;
23517;SDS011;11935;50.878;4.392;2022-10-28T05:40:27;11.48;;;3.55;;
23517;SDS011;11935;50.878;4.392;2022-10-28T05:42:53;17.73;;;3.50;;
23517;SDS011;11935;50.878;4.392;2022-10-28T05:45:19;11.38;;;3.50;;
23517;SDS011;11935;50.878;4.392;2022-10-28T05:47:46;9.63;;;3.20;;
23517;SDS011;11935;50.878;4.392;2022-10-28T05:50:13;11.48;;;3.35;;
23517;SDS011;11935;50.878;4.392;2022-10-28T05:52:39;11.07;;;4.07;;
23517;SDS011;11935;50.878;4.392;2022-10-28T05:55:05;11.40;;;3.38;;
23517;SDS011;11935;50.878;4.392;2022-10-28T05:57:34;9.65;;;3.53;;
23517;SDS011;11935;50.878;4.392;2022-10-28T06:00:00;14.13;;;3.97;;
23517;SDS011;11935;50.878;4.392;2022-10-28T06:02:26;9.20;;;3.53;;
23517;SDS011;11935;50.878;4.392;2022-10-28T06:04:52;15.88;;;4.00;;
23517;SDS011;11935;50.878;4.392;2022-10-28T06:07:18;15.45;;;3.92;;
23517;SDS011;11935;50.878;4.392;2022-10-28T06:09:44;12.10;;;4.45;;
23517;SDS011;11935;50.878;4.392;2022-10-28T06:12:10;13.35;;;3.78;;
23517;SDS011;11935;50.878;4.392;2022-10-28T06:14:36;20.10;;;4.35;;
23517;SDS011;11935;50.878;4.392;2022-10-28T06:17:03;15.93;;;4.47;;
23517;SDS011;11935;50.878;4.392;2022-10-28T06:19:29;16.15;;;3.67;;
23517;SDS011;11935;50.878;4.392;2022-10-28T06:21:56;11.20;;;3.58;;
23517;SDS011;11935;50.878;4.392;2022-10-28T06:24:22;14.32;;;4.45;;
23517;SDS011;11935;50.878;4.392;2022-10-28T06:26:48;12.65;;;4.43;;
23517;SDS011;11935;50.878;4.392;2022-10-28T06:29:14;16.08;;;4.15;;
23517;SDS011;11935;50.878;4.392;2022-10-28T06:31:40;22.55;;;4.95;;
23517;SDS011;11935;50.878;4.392;2022-10-28T06:34:12;18.30;;;4.15;;
23517;SDS011;11935;50.878;4.392;2022-10-28T06:36:39;10.27;;;3.40;;
23517;SDS011;11935;50.878;4.392;2022-10-28T06:39:05;15.32;;;3.83;;
23517;SDS011;11935;50.878;4.392;2022-10-28T06:41:31;11.88;;;4.15;;
23517;SDS011;11935;50.878;4.392;2022-10-28T06:43:57;16.13;;;3.97;;
23517;SDS011;11935;50.878;4.392;2022-10-28T06:46:23;10.30;;;4.05;;
23517;SDS011;11935;50.878;4.392;2022-10-28T06:48:49;12.95;;;3.67;;
23517;SDS011;11935;50.878;4.392;2022-10-28T06:51:16;14.65;;;4.15;;
23517;SDS011;11935;50.878;4.392;2022-10-28T06:53:42;10.93;;;4.22;;
23517;SDS011;11935;50.878;4.392;2022-10-28T06:56:08;19.35;;;4.28;;
23517;SDS011;11935;50.878;4.392;2022-10-28T06:58:34;19.27;;;4.00;;
23517;SDS011;11935;50.878;4.392;2022-10-28T07:01:04;16.00;;;4.05;;
23517;SDS011;11935;50.878;4.392;2022-10-28T07:03:30;12.10;;;3.95;;
23517;SDS011;11935;50.878;4.392;2022-10-28T07:05:59;16.42;;;5.18;;
23517;SDS011;11935;50.878;4.392;2022-10-28T07:08:25;11.43;;;4.07;;
23517;SDS011;11935;50.878;4.392;2022-10-28T07:10:52;11.27;;;3.67;;
23517;SDS011;11935;50.878;4.392;2022-10-28T07:13:19;16.15;;;4.72;;
23517;SDS011;11935;50.878;4.392;2022-10-28T07:15:49;11.73;;;4.40;;
23517;SDS011;11935;50.878;4.392;2022-10-28T07:18:15;14.30;;;4.18;;
23517;SDS011;11935;50.878;4.392;2022-10-28T07:20:41;12.40;;;4.97;;
23517;SDS011;11935;50.878;4.392;2022-10-28T07:23:07;15.48;;;5.13;;
23517;SDS011;11935;50.878;4.392;2022-10-28T07:25:33;15.77;;;4.80;;
23517;SDS011;11935;50.878;4.392;2022-10-28T07:27:59;13.15;;;4.32;;
23517;SDS011;11935;50.878;4.392;2022-10-28T07:30:26;17.13;;;4.03;;
23517;SDS011;11935;50.878;4.392;2022-10-28T07:32:52;18.50;;;4.95;;
23517;SDS011;11935;50.878;4.392;2022-10-28T07:35:18;12.32;;;4.15;;
23517;SDS011;11935;50.878;4.392;2022-10-28T07:37:44;17.50;;;3.97;;
23517;SDS011;11935;50.878;4.392;2022-10-28T07:40:11;16.85;;;4.22;;
23517;SDS011;11935;50.878;4.392;2022-10-28T07:42:37;18.48;;;5.45;;
23517;SDS011;11935;50.878;4.392;2022-10-28T07:45:03;18.02;;;4.97;;
23517;SDS011;11935;50.878;4.392;2022-10-28T07:47:29;15.07;;;4.57;;
23517;SDS011;11935;50.878;4.392;2022-10-28T07:49:55;14.43;;;4.22;;
23517;SDS011;11935;50.878;4.392;2022-10-28T07:52:21;18.00;;;4.75;;
23517;SDS011;11935;50.878;4.392;2022-10-28T07:54:49;14.40;;;4.22;;
23517;SDS011;11935;50.878;4.392;2022-10-28T07:57:15;16.13;;;4.45;;
23517;SDS011;11935;50.878;4.392;2022-10-28T07:59:41;16.77;;;3.90;;
23517;SDS011;11935;50.878;4.392;2022-10-28T08:02:09;17.23;;;4.13;;
23517;SDS011;11935;50.878;4.392;2022-10-28T08:04:40;15.80;;;4.60;;
23517;SDS011;11935;50.878;4.392;2022-10-28T08:07:06;15.50;;;4.28;;
23517;SDS011;11935;50.878;4.392;2022-10-28T08:09:32;16.58;;;4.10;;
23517;SDS011;11935;50.878;4.392;2022-10-28T08:11:58;9.73;;;3.35;;
23517;SDS011;11935;50.878;4.392;2022-10-28T08:14:24;17.02;;;4.18;;
23517;SDS011;11935;50.878;4.392;2022-10-28T08:16:50;12.98;;;3.60;;
23517;SDS011;11935;50.878;4.392;2022-10-28T08:19:16;14.52;;;4.00;;
23517;SDS011;11935;50.878;4.392;2022-10-28T08:21:42;12.20;;;3.90;;
23517;SDS011;11935;50.878;4.392;2022-10-28T08:24:08;13.82;;;4.40;;
23517;SDS011;11935;50.878;4.392;2022-10-28T08:26:34;15.05;;;4.35;;
23517;SDS011;11935;50.878;4.392;2022-10-28T08:29:00;13.27;;;4.00;;
23517;SDS011;11935;50.878;4.392;2022-10-28T08:31:26;12.20;;;3.95;;
23517;SDS011;11935;50.878;4.392;2022-10-28T08:33:51;14.13;;;3.25;;
23517;SDS011;11935;50.878;4.392;2022-10-28T08:36:18;16.60;;;4.20;;
23517;SDS011;11935;50.878;4.392;2022-10-28T08:38:45;10.88;;;3.85;;
23517;SDS011;11935;50.878;4.392;2022-10-28T08:51:20;15.80;;;4.25;;
23517;SDS011;11935;50.878;4.392;2022-10-28T08:53:54;16.90;;;3.72;;
23517;SDS011;11935;50.878;4.392;2022-10-28T08:56:26;13.25;;;4.28;;
23517;SDS011;11935;50.878;4.392;2022-10-28T08:58:54;17.52;;;4.82;;
23517;SDS011;11935;50.878;4.392;2022-10-28T09:04:15;9.90;;;4.07;;
23517;SDS011;11935;50.878;4.392;2022-10-28T09:06:43;15.32;;;3.78;;
23517;SDS011;11935;50.878;4.392;2022-10-28T09:09:11;12.52;;;4.40;;
23517;SDS011;11935;50.878;4.392;2022-10-28T09:17:02;17.45;;;4.20;;
23517;SDS011;11935;50.878;4.392;2022-10-28T09:19:41;18.98;;;4.03;;
23517;SDS011;11935;50.878;4.392;2022-10-28T09:24:55;13.02;;;3.17;;
23517;SDS011;11935;50.878;4.392;2022-10-28T09:29:53;19.88;;;4.00;;
23517;SDS011;11935;50.878;4.392;2022-10-28T09:35:02;15.27;;;4.00;;
23517;SDS011;11935;50.878;4.392;2022-10-28T09:42:43;20.33;;;3.65;;
23517;SDS011;11935;50.878;4.392;2022-10-28T09:45:11;15.07;;;3.50;;
23517;SDS011;11935;50.878;4.392;2022-10-28T09:47:43;16.33;;;3.80;;
23517;SDS011;11935;50.878;4.392;2022-10-28T09:50:18;14.20;;;3.22;;
23517;SDS011;11935;50.878;4.392;2022-10-28T09:52:49;16.38;;;4.20;;
23517;SDS011;11935;50.878;4.392;2022-10-28T09:55:19;11.48;;;3.25;;
23517;SDS011;11935;50.878;4.392;2022-10-28T09:57:46;11.40;;;3.07;;
23517;SDS011;11935;50.878;4.392;2022-10-28T10:00:13;15.75;;;4.13;;
23517;SDS011;11935;50.878;4.392;2022-10-28T10:02:39;13.05;;;3.55;;
23517;SDS011;11935;50.878;4.392;2022-10-28T10:05:10;18.63;;;3.50;;
23517;SDS011;11935;50.878;4.392;2022-10-28T10:07:38;16.48;;;3.72;;
23517;SDS011;11935;50.878;4.392;2022-10-28T10:10:12;17.08;;;3.53;;
23517;SDS011;11935;50.878;4.392;2022-10-28T10:12:44;14.25;;;3.67;;
23517;SDS011;11935;50.878;4.392;2022-10-28T10:15:18;26.05;;;4.32;;
23517;SDS011;11935;50.878;4.392;2022-10-28T10:17:48;11.98;;;3.65;;
23517;SDS011;11935;50.878;4.392;2022-10-28T10:20:15;17.45;;;4.03;;
23517;SDS011;11935;50.878;4.392;2022-10-28T10:22:44;13.10;;;3.65;;
23517;SDS011;11935;50.878;4.392;2022-10-28T10:30:32;11.40;;;3.47;;
23517;SDS011;11935;50.878;4.392;2022-10-28T10:32:58;13.70;;;3.20;;
23517;SDS011;11935;50.878;4.392;2022-10-28T10:37:51;16.92;;;3.60;;
23517;SDS011;11935;50.878;4.392;2022-10-28T10:40:20;13.43;;;4.20;;
23517;SDS011;11935;50.878;4.392;2022-10-28T10:42:47;12.90;;;4.47;;
23517;SDS011;11935;50.878;4.392;2022-10-28T10:45:26;15.45;;;4.03;;
23517;SDS011;11935;50.878;4.392;2022-10-28T10:50:38;13.45;;;3.80;;
23517;SDS011;11935;50.878;4.392;2022-10-28T10:53:04;17.67;;;4.30;;
23517;SDS011;11935;50.878;4.392;2022-10-28T10:58:26;11.13;;;3.83;;
23517;SDS011;11935;50.878;4.392;2022-10-28T11:00:54;16.40;;;3.35;;
23517;SDS011;11935;50.878;4.392;2022-10-28T11:03:22;18.45;;;3.90;;
23517;SDS011;11935;50.878;4.392;2022-10-28T11:05:50;19.35;;;4.13;;
23517;SDS011;11935;50.878;4.392;2022-10-28T11:10:44;15.88;;;4.22;;
23517;SDS011;11935;50.878;4.392;2022-10-28T11:13:37;16.10;;;3.85;;
23517;SDS011;11935;50.878;4.392;2022-10-28T11:16:15;17.58;;;4.13;;
23517;SDS011;11935;50.878;4.392;2022-10-28T11:18:45;16.50;;;4.13;;
23517;SDS011;11935;50.878;4.392;2022-10-28T11:21:26;12.35;;;3.75;;
23517;SDS011;11935;50.878;4.392;2022-10-28T11:26:26;19.45;;;4.47;;
23517;SDS011;11935;50.878;4.392;2022-10-28T11:29:12;17.92;;;3.95;;
23517;SDS011;11935;50.878;4.392;2022-10-28T11:31:45;13.45;;;3.78;;
23517;SDS011;11935;50.878;4.392;2022-10-28T11:39:34;13.05;;;3.63;;
23517;SDS011;11935;50.878;4.392;2022-10-28T12:00:32;14.50;;;3.78;;
23517;SDS011;11935;50.878;4.392;2022-10-28T12:03:02;12.75;;;3.55;;
23517;SDS011;11935;50.878;4.392;2022-10-28T12:10:38;18.92;;;4.05;;
23517;SDS011;11935;50.878;4.392;2022-10-28T12:23:12;16.15;;;4.03;;
23517;SDS011;11935;50.878;4.392;2022-10-28T12:25:41;13.90;;;3.60;;
23517;SDS011;11935;50.878;4.392;2022-10-28T12:28:22;13.93;;;3.08;;
23517;SDS011;11935;50.878;4.392;2022-10-28T12:30:50;13.07;;;3.42;;
23517;SDS011;11935;50.878;4.392;2022-10-28T12:33:21;10.32;;;3.13;;
23517;SDS011;11935;50.878;4.392;2022-10-28T12:35:53;14.98;;;3.58;;
23517;SDS011;11935;50.878;4.392;2022-10-28T12:40:58;10.73;;;2.85;;
23517;SDS011;11935;50.878;4.392;2022-10-28T12:43:41;12.18;;;3.30;;
23517;SDS011;11935;50.878;4.392;2022-10-28T12:46:39;15.07;;;4.32;;
23517;SDS011;11935;50.878;4.392;2022-10-28T12:51:54;14.25;;;4.72;;
23517;SDS011;11935;50.878;4.392;2022-10-28T12:56:49;13.63;;;3.90;;
23517;SDS011;11935;50.878;4.392;2022-10-28T13:02:27;15.55;;;3.33;;
23517;SDS011;11935;50.878;4.392;2022-10-28T13:04:58;13.55;;;3.47;;
23517;SDS011;11935;50.878;4.392;2022-10-28T13:07:34;10.68;;;3.83;;
23517;SDS011;11935;50.878;4.392;2022-10-28T13:20:16;18.75;;;4.85;;
23517;SDS011;11935;50.878;4.392;2022-10-28T13:25:40;12.98;;;3.50;;
23517;SDS011;11935;50.878;4.392;2022-10-28T13:28:14;14.93;;;4.20;;
23517;SDS011;11935;50.878;4.392;2022-10-28T13:30:51;13.85;;;3.80;;
23517;SDS011;11935;50.878;4.392;2022-10-28T13:33:19;14.35;;;3.13;;
23517;SDS011;11935;50.878;4.392;2022-10-28T13:35:54;9.73;;;2.97;;
23517;SDS011;11935;50.878;4.392;2022-10-28T13:38:31;13.75;;;3.67;;
23517;SDS011;11935;50.878;4.392;2022-10-28T13:46:08;14.02;;;3.30;;
23517;SDS011;11935;50.878;4.392;2022-10-28T13:53:39;18.17;;;4.22;;
23517;SDS011;11935;50.878;4.392;2022-10-28T13:56:26;15.68;;;3.60;;
23517;SDS011;11935;50.878;4.392;2022-10-28T14:04:02;9.70;;;3.53;;
23517;SDS011;11935;50.878;4.392;2022-10-28T14:06:29;17.90;;;3.88;;
23517;SDS011;11935;50.878;4.392;2022-10-28T14:08:56;14.23;;;3.85;;
23517;SDS011;11935;50.878;4.392;2022-10-28T14:11:22;10.13;;;3.35;;
23517;SDS011;11935;50.878;4.392;2022-10-28T14:13:51;9.20;;;3.33;;
23517;SDS011;11935;50.878;4.392;2022-10-28T14:16:22;12.23;;;3.50;;
23517;SDS011;11935;50.878;4.392;2022-10-28T14:19:31;11.27;;;3.17;;
23517;SDS011;11935;50.878;4.392;2022-10-28T14:21:47;12.30;;;2.88;;
23517;SDS011;11935;50.878;4.392;2022-10-28T14:24:36;11.05;;;3.20;;
23517;SDS011;11935;50.878;4.392;2022-10-28T14:29:43;14.65;;;3.42;;
23517;SDS011;11935;50.878;4.392;2022-10-28T14:32:55;13.93;;;3.95;;
23517;SDS011;11935;50.878;4.392;2022-10-28T14:37:30;14.45;;;3.80;;
23517;SDS011;11935;50.878;4.392;2022-10-28T14:40:05;17.67;;;4.18;;
23517;SDS011;11935;50.878;4.392;2022-10-28T14:52:28;15.35;;;3.83;;
23517;SDS011;11935;50.878;4.392;2022-10-28T14:54:59;14.65;;;3.38;;
23517;SDS011;11935;50.878;4.392;2022-10-28T15:00:14;16.60;;;4.13;;
23517;SDS011;11935;50.878;4.392;2022-10-28T15:02:41;18.20;;;3.47;;
23517;SDS011;11935;50.878;4.392;2022-10-28T15:07:39;13.27;;;3.72;;
23517;SDS011;11935;50.878;4.392;2022-10-28T15:10:12;13.90;;;3.83;;
23517;SDS011;11935;50.878;4.392;2022-10-28T15:12:39;14.95;;;4.57;;
23517;SDS011;11935;50.878;4.392;2022-10-28T15:15:27;9.95;;;3.53;;
23517;SDS011;11935;50.878;4.392;2022-10-28T15:17:53;11.77;;;3.97;;
23517;SDS011;11935;50.878;4.392;2022-10-28T15:20:30;12.80;;;4.18;;
23517;SDS011;11935;50.878;4.392;2022-10-28T15:23:14;12.90;;;3.67;;
23517;SDS011;11935;50.878;4.392;2022-10-28T15:25:41;7.90;;;3.95;;
23517;SDS011;11935;50.878;4.392;2022-10-28T15:28:08;16.05;;;4.13;;
23517;SDS011;11935;50.878;4.392;2022-10-28T15:35:47;17.98;;;4.28;;
23517;SDS011;11935;50.878;4.392;2022-10-28T15:40:54;13.55;;;3.97;;
23517;SDS011;11935;50.878;4.392;2022-10-28T15:43:23;21.70;;;5.15;;
23517;SDS011;11935;50.878;4.392;2022-10-28T15:46:05;16.30;;;4.97;;
23517;SDS011;11935;50.878;4.392;2022-10-28T15:48:32;16.67;;;4.55;;
23517;SDS011;11935;50.878;4.392;2022-10-28T15:51:15;12.55;;;4.82;;
23517;SDS011;11935;50.878;4.392;2022-10-28T15:53:51;17.67;;;6.07;;
23517;SDS011;11935;50.878;4.392;2022-10-28T15:58:45;15.25;;;5.57;;
23517;SDS011;11935;50.878;4.392;2022-10-28T16:01:28;19.63;;;5.22;;
23517;SDS011;11935;50.878;4.392;2022-10-28T16:03:55;11.40;;;4.82;;
23517;SDS011;11935;50.878;4.392;2022-10-28T16:08:57;17.85;;;5.50;;
23517;SDS011;11935;50.878;4.392;2022-10-28T16:11:24;17.48;;;4.85;;
23517;SDS011;11935;50.878;4.392;2022-10-28T16:13:50;14.40;;;4.78;;
23517;SDS011;11935;50.878;4.392;2022-10-28T16:16:27;21.08;;;5.70;;
23517;SDS011;11935;50.878;4.392;2022-10-28T16:19:06;17.40;;;5.47;;
23517;SDS011;11935;50.878;4.392;2022-10-28T16:21:33;20.85;;;5.13;;
23517;SDS011;11935;50.878;4.392;2022-10-28T16:24:01;16.52;;;4.80;;
23517;SDS011;11935;50.878;4.392;2022-10-28T16:26:27;17.88;;;5.50;;
23517;SDS011;11935;50.878;4.392;2022-10-28T16:28:54;18.20;;;5.15;;
23517;SDS011;11935;50.878;4.392;2022-10-28T16:31:21;18.00;;;4.90;;
23517;SDS011;11935;50.878;4.392;2022-10-28T16:33:48;20.02;;;4.93;;
23517;SDS011;11935;50.878;4.392;2022-10-28T16:36:14;18.33;;;4.88;;
23517;SDS011;11935;50.878;4.392;2022-10-28T16:38:40;14.05;;;4.40;;
23517;SDS011;11935;50.878;4.392;2022-10-28T16:41:09;12.93;;;4.25;;
23517;SDS011;11935;50.878;4.392;2022-10-28T16:43:36;20.38;;;4.85;;
23517;SDS011;11935;50.878;4.392;2022-10-28T16:46:02;11.43;;;5.13;;
23517;SDS011;11935;50.878;4.392;2022-10-28T16:48:28;13.68;;;5.00;;
23517;SDS011;11935;50.878;4.392;2022-10-28T16:50:59;16.08;;;5.25;;
23517;SDS011;11935;50.878;4.392;2022-10-28T16:53:26;13.38;;;5.00;;
23517;SDS011;11935;50.878;4.392;2022-10-28T16:55:52;15.48;;;4.88;;
23517;SDS011;11935;50.878;4.392;2022-10-28T16:58:23;14.02;;;5.10;;
23517;SDS011;11935;50.878;4.392;2022-10-28T17:00:49;18.60;;;5.30;;
23517;SDS011;11935;50.878;4.392;2022-10-28T17:03:15;13.82;;;5.22;;
23517;SDS011;11935;50.878;4.392;2022-10-28T17:05:41;13.57;;;5.95;;
23517;SDS011;11935;50.878;4.392;2022-10-28T17:08:08;16.63;;;5.47;;
23517;SDS011;11935;50.878;4.392;2022-10-28T17:10:35;18.30;;;6.07;;
23517;SDS011;11935;50.878;4.392;2022-10-28T17:13:01;17.70;;;5.75;;
23517;SDS011;11935;50.878;4.392;2022-10-28T17:15:27;15.70;;;5.75;;
23517;SDS011;11935;50.878;4.392;2022-10-28T17:17:53;15.48;;;5.85;;
23517;SDS011;11935;50.878;4.392;2022-10-28T17:20:19;13.55;;;5.95;;
23517;SDS011;11935;50.878;4.392;2022-10-28T17:22:45;19.40;;;5.97;;
23517;SDS011;11935;50.878;4.392;2022-10-28T17:25:11;18.17;;;6.82;;
23517;SDS011;11935;50.878;4.392;2022-10-28T17:27:37;19.30;;;6.88;;
23517;SDS011;11935;50.878;4.392;2022-10-28T17:30:03;20.02;;;7.10;;
23517;SDS011;11935;50.878;4.392;2022-10-28T17:32:30;16.83;;;6.85;;
23517;SDS011;11935;50.878;4.392;2022-10-28T17:34:56;21.98;;;7.93;;
23517;SDS011;11935;50.878;4.392;2022-10-28T17:37:22;19.13;;;7.07;;
23517;SDS011;11935;50.878;4.392;2022-10-28T17:39:48;14.68;;;6.13;;
23517;SDS011;11935;50.878;4.392;2022-10-28T17:42:14;19.40;;;7.63;;
23517;SDS011;11935;50.878;4.392;2022-10-28T17:44:40;21.50;;;7.00;;
23517;SDS011;11935;50.878;4.392;2022-10-28T17:47:06;16.70;;;6.55;;
23517;SDS011;11935;50.878;4.392;2022-10-28T17:49:32;19.65;;;6.35;;
23517;SDS011;11935;50.878;4.392;2022-10-28T17:52:00;14.93;;;7.03;;
23517;SDS011;11935;50.878;4.392;2022-10-28T17:54:26;18.95;;;7.05;;
23517;SDS011;11935;50.878;4.392;2022-10-28T17:56:53;19.88;;;7.70;;
23517;SDS011;11935;50.878;4.392;2022-10-28T17:59:19;18.50;;;6.20;;
23517;SDS011;11935;50.878;4.392;2022-10-28T18:01:45;20.17;;;7.00;;
23517;SDS011;11935;50.878;4.392;2022-10-28T18:04:11;24.73;;;7.10;;
23517;SDS011;11935;50.878;4.392;2022-10-28T18:06:37;16.73;;;6.22;;
23517;SDS011;11935;50.878;4.392;2022-10-28T18:09:03;19.60;;;7.20;;
23517;SDS011;11935;50.878;4.392;2022-10-28T18:11:29;20.33;;;9.80;;